D/T METAR WX W/DIR W/SPE G/SPE TEMP DEWP
20/06/19 15:30 EIKN 201430Z 30012KT 270V330 9999 FEW020CB SCT024 13/06 Q1011 NOSIG WNW (300°) 13.8mph 13°C 6°C
20/06/19 15:00 EIKN 201400Z 28010KT 230V320 9999 SCT020CB SCT060 14/06 Q1011 NOSIG W (280°) 11.5mph 14°C 6°C
20/06/19 14:30 EIKN 201330Z 30012KT 270V340 9999 FEW020CB SCT040 14/06 Q1011 NOSIG WNW (300°) 13.8mph 14°C 6°C
20/06/19 14:00 EIKN 201300Z 30014KT 280V340 9999 FEW020CB SCT024 BKN040 13/07 Q1011 NOSIG WNW (300°) 16.1mph 13°C 7°C
20/06/19 13:30 EIKN 201230Z 30011KT 270V330 9999 FEW020CB SCT030 13/06 Q1011 NOSIG WNW (300°) 12.7mph 13°C 6°C
20/06/19 13:00 EIKN 201200Z 27014KT 8000 FEW015 FEW020CB SCT026 14/06 Q1011 NOSIG W (270°) 16.1mph 14°C 6°C
20/06/19 12:30 EIKN 201130Z 28010KT 230V320 9999 FEW014 FEW020CB SCT025 12/08 Q1011 NOSIG W (280°) 11.5mph 12°C 8°C
20/06/19 12:00 EIKN 201100Z 27014KT 8000 -SHRA FEW014 FEW020CB SCT026 10/07 Q1011 NOSIG -SHRA W (270°) 16.1mph 10°C 7°C
20/06/19 11:30 EIKN 201030Z 25008KT 220V280 9999 FEW014 FEW020CB SCT024 11/08 Q1010 NOSIG WSW (250°) 9.2mph 11°C 8°C
20/06/19 11:00 EIKN 201000Z 27008KT 9999 FEW014 FEW020CB SCT024 BKN036 10/08 Q1010 NOSIG W (270°) 9.2mph 10°C 8°C
20/06/19 10:30 EIKN 200930Z 29004KT 270V330 8000 FEW014 FEW020CB SCT024 10/07 Q1010 NOSIG WNW (290°) 4.6mph 10°C 7°C
20/06/19 10:00 EIKN 200900Z 27007KT 9000 -SHRA FEW014 FEW020CB SCT023 12/06 Q1010 NOSIG -SHRA W (270°) 8.1mph 12°C 6°C
20/06/19 09:30 EIKN 200830Z 27008KT 240V320 9999 FEW014 11/06 Q1010 NOSIG W (270°) 9.2mph 11°C 6°C
20/06/19 09:00 EIKN 200800Z 27008KT 240V310 9999 FEW014 FEW020CB 11/07 Q1010 NOSIG W (270°) 9.2mph 11°C 7°C
20/06/19 08:30 EIKN 200730Z 25006KT 220V290 9999 FEW014 FEW020CB 10/07 Q1010 NOSIG WSW (250°) 6.9mph 10°C 7°C
20/06/19 08:00 EIKN 200700Z 22004KT 150V270 9999 FEW015 FEW020CB 09/08 Q1010 NOSIG SW (220°) 4.6mph 9°C 8°C
20/06/19 07:30 EIKN 200630Z 24004KT 190V280 9999 FEW010 FEW020CB 09/07 Q1009 NOSIG WSW (240°) 4.6mph 9°C 7°C
20/06/19 07:00 EIKN 200600Z 23003KT 9999 FEW010 FEW020CB 07/07 Q1009 NOSIG SW (230°) 3.5mph 7°C 7°C
20/06/19 06:30 EIKN 200530Z 24003KT 9999 FEW008 FEW020CB 07/06 Q1009 NOSIG WSW (240°) 3.5mph 7°C 6°C
20/06/19 06:00 EIKN 200500Z 25006KT 9999 FEW005 07/06 Q1009 NOSIG WSW (250°) 6.9mph 7°C 6°C
19/06/19 19:30 EIKN 191830Z 27011KT 9999 -SHRA SCT014 FEW019CB SCT024 BKN038 10/09 Q1008 NOSIG -SHRA W (270°) 12.7mph 10°C 9°C
19/06/19 19:00 EIKN 191800Z 26014KT 9000 -SHRA SCT014 FEW019CB SCT024 BKN038 11/09 Q1007 NOSIG -SHRA W (260°) 16.1mph 11°C 9°C
19/06/19 18:30 EIKN 191730Z 25014KT 9999 VCSH SCT012 FEW019CB SCT025 BKN039 11/09 Q1007 NOSIG VCSH WSW (250°) 16.1mph 11°C 9°C
19/06/19 18:00 EIKN 191700Z 26011KT 9999 -SHRA FEW014 FEW019CB SCT024 BKN047 11/10 Q1007 NOSIG -SHRA W (260°) 12.7mph 11°C 10°C
19/06/19 17:30 EIKN 191630Z 26013KT 9999 FEW016 FEW020CB SCT026 BKN041 12/09 Q1007 NOSIG W (260°) 15.0mph 12°C 9°C
19/06/19 17:00 EIKN 191600Z 23008KT 180V270 9000 -SHRA FEW016 FEW020CB SCT026 BKN044 12/09 Q1007 NOSIG -SHRA SW (230°) 9.2mph 12°C 9°C
19/06/19 16:30 EIKN 191530Z 24012KT 210V280 9999 FEW016 FEW020CB SCT026 BKN039 13/09 Q1008 NOSIG WSW (240°) 13.8mph 13°C 9°C
19/06/19 16:00 EIKN 191500Z 25012KT 210V280 9999 FEW016 FEW020CB SCT026 BKN047 13/08 Q1007 NOSIG WSW (250°) 13.8mph 13°C 8°C
19/06/19 15:30 EIKN 191430Z 25012KT 210V280 9999 FEW016 FEW020CB SCT025 BKN047 14/08 Q1008 NOSIG WSW (250°) 13.8mph 14°C 8°C
19/06/19 15:00 EIKN 191400Z 27014KT 9999 FEW016 FEW020CB SCT025 BKN046 13/09 Q1008 NOSIG W (270°) 16.1mph 13°C 9°C
19/06/19 14:30 EIKN 191330Z 25013KT 9999 FEW016 FEW020CB SCT046 15/09 Q1008 NOSIG WSW (250°) 15.0mph 15°C 9°C
19/06/19 14:00 EIKN 191300Z 26018KT 220V290 9999 FEW016 FEW020CB BKN042 13/09 Q1008 NOSIG W (260°) 20.7mph 13°C 9°C
19/06/19 13:30 EIKN 191230Z 26011KT 210V280 9999 FEW016 FEW020CB SCT038 12/10 Q1008 NOSIG W (260°) 12.7mph 12°C 10°C
19/06/19 13:00 EIKN 191200Z 25012KT 220V280 9999 FEW016 SCT024 BKN039 14/08 Q1008 NOSIG WSW (250°) 13.8mph 14°C 8°C
19/06/19 12:30 EIKN 191130Z 25015KT 9999 FEW016 SCT024 BKN039 13/08 Q1008 NOSIG WSW (250°) 17.3mph 13°C 8°C
19/06/19 12:00 EIKN 191100Z 26015KT 9999 SCT024 BKN038 12/08 Q1008 NOSIG W (260°) 17.3mph 12°C 8°C
19/06/19 11:30 EIKN 191030Z 25012KT 9999 VCSH BKN024 BKN038 13/08 Q1008 NOSIG VCSH WSW (250°) 13.8mph 13°C 8°C
19/06/19 11:00 EIKN 191000Z 25012KT 9999 SCT024 BKN042 13/09 Q1008 NOSIG WSW (250°) 13.8mph 13°C 9°C
19/06/19 10:30 EIKN 190930Z 26013KT 220V290 9999 SCT022 BKN042 BKN150 13/08 Q1008 NOSIG W (260°) 15.0mph 13°C 8°C
19/06/19 10:00 EIKN 190900Z 24010KT 210V280 9999 SCT022 BKN040 BKN120 12/09 Q1008 NOSIG WSW (240°) 11.5mph 12°C 9°C
19/06/19 09:30 EIKN 190830Z 25010KT 220V280 9999 VCSH FEW012 SCT022 BKN038 12/08 Q1008 NOSIG VCSH WSW (250°) 11.5mph 12°C 8°C
19/06/19 09:00 EIKN 190800Z 23010KT 190V270 9999 FEW012 SCT022 BKN150 11/09 Q1008 NOSIG SW (230°) 11.5mph 11°C 9°C
19/06/19 08:30 EIKN 190730Z 23008KT 190V280 9999 VCSH FEW015 SCT022 BKN038 11/09 Q1008 NOSIG VCSH SW (230°) 9.2mph 11°C 9°C
19/06/19 08:00 EIKN 190700Z 22006KT 170V250 9999 VCSH SCT013 SCT020 BKN038 11/10 Q1008 NOSIG VCSH SW (220°) 6.9mph 11°C 10°C
19/06/19 07:30 EIKN 190630Z 21005KT 180V250 9999 VCSH FEW012 SCT022 BKN042 10/09 Q1008 NOSIG VCSH SSW (210°) 5.8mph 10°C 9°C
19/06/19 07:00 EIKN 190600Z 21005KT 170V230 9999 VCSH SCT024 BKN042 10/09 Q1008 NOSIG VCSH SSW (210°) 5.8mph 10°C 9°C
19/06/19 06:30 EIKN 190530Z 21006KT 180V240 9999 FEW022 BKN045 10/09 Q1008 NOSIG SSW (210°) 6.9mph 10°C 9°C
19/06/19 06:00 EIKN 190500Z 22005KT 180V250 9999 FEW022 BKN042 09/09 Q1008 NOSIG SW (220°) 5.8mph 9°C 9°C